createdAt,value
2019-01-24T00:00:44.297Z,33.90
2019-01-24T00:03:12.721Z,34.13
2019-01-24T00:05:41.499Z,34.30
2019-01-24T00:08:09.934Z,35.48
2019-01-24T00:10:38.365Z,35.68
2019-01-24T00:13:06.813Z,34.67
2019-01-24T00:15:35.225Z,35.03
2019-01-24T00:18:03.640Z,34.45
2019-01-24T00:20:32.053Z,34.78
2019-01-24T00:23:00.504Z,34.45
2019-01-24T00:25:28.910Z,35.55
2019-01-24T00:27:57.690Z,38.05
2019-01-24T00:30:26.101Z,38.33
2019-01-24T00:32:54.522Z,36.35
2019-01-24T00:35:22.941Z,38.38
2019-01-24T00:37:51.381Z,32.98
2019-01-24T00:40:21.025Z,34.88
2019-01-24T00:42:49.445Z,35.20
2019-01-24T00:45:18.289Z,39.00
2019-01-24T00:47:46.754Z,34.05
2019-01-24T00:50:16.329Z,33.50
2019-01-24T00:52:45.103Z,34.00
2019-01-24T00:55:16.768Z,32.05
2019-01-24T00:57:45.326Z,33.63
2019-01-24T01:00:22.721Z,33.65
2019-01-24T01:02:51.222Z,33.78
2019-01-24T01:05:20.463Z,32.13
2019-01-24T01:07:49.033Z,35.88
2019-01-24T01:10:17.784Z,31.40
2019-01-24T01:12:46.233Z,32.30
2019-01-24T01:15:19.720Z,29.10
2019-01-24T01:17:48.538Z,30.32
2019-01-24T01:20:19.409Z,31.70
2019-01-24T01:22:48.097Z,31.82
2019-01-24T01:25:16.658Z,29.65
2019-01-24T01:27:45.407Z,29.15
2019-01-24T01:30:33.210Z,30.10
2019-01-24T01:33:01.653Z,29.48
2019-01-24T01:35:30.071Z,30.43
2019-01-24T01:37:58.494Z,28.32
2019-01-24T01:40:27.397Z,30.65
2019-01-24T01:42:55.882Z,26.73
2019-01-24T01:45:24.327Z,28.92
2019-01-24T01:47:52.736Z,29.70
2019-01-24T01:50:27.097Z,29.15
2019-01-24T01:52:55.496Z,31.35
2019-01-24T01:55:23.944Z,28.23
2019-01-24T01:57:52.343Z,30.70
2019-01-24T02:00:23.204Z,31.30
2019-01-24T02:02:51.715Z,24.72
2019-01-24T02:05:20.131Z,30.30
2019-01-24T02:07:49.465Z,28.73
2019-01-24T02:10:22.885Z,29.32
2019-01-24T02:12:52.033Z,27.55
2019-01-24T02:15:21.385Z,25.97
2019-01-24T02:17:50.530Z,32.75
2019-01-24T02:20:23.626Z,29.18
2019-01-24T02:22:52.987Z,25.37
2019-01-24T02:25:21.584Z,27.07
2019-01-24T02:27:50.098Z,26.07
2019-01-24T02:30:23.837Z,25.57
2019-01-24T02:32:52.326Z,25.30
2019-01-24T02:35:20.902Z,26.48
2019-01-24T02:37:49.343Z,30.02
2019-01-24T02:40:17.838Z,30.30
2019-01-24T02:42:46.256Z,28.07
2019-01-24T02:45:17.438Z,27.52
2019-01-24T02:47:45.841Z,27.65
2019-01-24T02:50:16.923Z,29.40
2019-01-24T02:52:45.658Z,25.82
2019-01-24T02:55:15.705Z,28.35
2019-01-24T02:57:44.294Z,28.23
2019-01-24T03:00:17.887Z,29.37
2019-01-24T03:02:46.313Z,28.92
2019-01-24T03:05:17.725Z,27.90
2019-01-24T03:07:46.478Z,28.77
2019-01-24T03:10:15.347Z,28.42
2019-01-24T03:12:44.172Z,29.32
2019-01-24T03:15:17.861Z,28.10
2019-01-24T03:17:46.280Z,28.95
2019-01-24T03:20:16.525Z,27.40
2019-01-24T03:22:45.494Z,29.12
2019-01-24T03:25:16.051Z,28.77
2019-01-24T03:27:44.629Z,28.27
2019-01-24T03:30:21.371Z,25.30
2019-01-24T03:32:50.053Z,26.25
2019-01-24T03:35:24.343Z,25.70
2019-01-24T03:37:52.839Z,23.65
2019-01-24T03:40:21.340Z,26.62
2019-01-24T03:42:49.807Z,27.35
2019-01-24T03:45:18.828Z,25.60
2019-01-24T03:47:47.311Z,28.75
2019-01-24T03:50:20.608Z,26.27
2019-01-24T03:52:49.681Z,25.37
2019-01-24T03:55:20.074Z,23.25
2019-01-24T03:57:48.685Z,22.37
2019-01-24T04:00:22.611Z,25.88
2019-01-24T04:02:51.110Z,23.75
2019-01-24T04:05:19.754Z,23.87
2019-01-24T04:07:48.165Z,25.48
2019-01-24T04:10:18.312Z,26.95
2019-01-24T04:12:46.711Z,23.87
2019-01-24T04:15:20.219Z,22.93
2019-01-24T04:17:49.234Z,28.50
2019-01-24T04:20:17.721Z,26.20
2019-01-24T04:22:46.177Z,27.67
2019-01-24T04:25:14.712Z,29.80
2019-01-24T04:27:43.226Z,28.25
2019-01-24T04:30:20.193Z,24.63
2019-01-24T04:32:48.672Z,24.00
2019-01-24T04:35:19.965Z,27.35
2019-01-24T04:37:47.875Z,24.47
2019-01-24T04:40:18.144Z,25.77
2019-01-24T04:42:46.624Z,24.00
2019-01-24T04:45:16.568Z,22.75
2019-01-24T04:47:45.051Z,23.52
2019-01-24T04:50:15.501Z,25.02
2019-01-24T04:52:44.064Z,25.40
2019-01-24T04:55:15.082Z,24.85
2019-01-24T04:57:43.491Z,26.45
2019-01-24T05:00:17.911Z,27.58
2019-01-24T05:02:46.310Z,25.55
2019-01-24T05:05:14.724Z,27.67
2019-01-24T05:07:43.463Z,29.57
2019-01-24T05:10:12.024Z,29.95
2019-01-24T05:12:40.443Z,31.50
2019-01-24T05:15:09.321Z,33.60
2019-01-24T05:17:37.733Z,33.18
2019-01-24T05:20:09.181Z,32.13
2019-01-24T05:22:37.584Z,34.50
2019-01-24T05:25:09.109Z,36.15
2019-01-24T05:27:43.605Z,33.25
2019-01-24T05:30:18.229Z,35.15
2019-01-24T05:32:46.647Z,31.65
2019-01-24T05:35:15.129Z,34.03
2019-01-24T05:37:43.637Z,37.25
2019-01-24T05:40:12.194Z,36.68
2019-01-24T05:42:40.691Z,34.30
2019-01-24T05:45:11.937Z,36.63
2019-01-24T05:47:40.344Z,34.33
2019-01-24T05:50:11.155Z,34.98
2019-01-24T05:52:39.648Z,34.35
2019-01-24T05:55:10.556Z,33.50
2019-01-24T05:57:39.107Z,34.20
2019-01-24T06:00:14.233Z,37.98
2019-01-24T06:02:42.658Z,36.58
2019-01-24T06:05:12.318Z,34.40
2019-01-24T06:07:40.725Z,33.38
2019-01-24T06:10:15.149Z,32.33
2019-01-24T06:12:43.572Z,33.02
2019-01-24T06:15:15.080Z,35.95
2019-01-24T06:17:43.622Z,35.48
2019-01-24T06:20:12.209Z,33.70
2019-01-24T06:22:40.953Z,33.13
2019-01-24T06:25:11.602Z,34.55
2019-01-24T06:27:40.115Z,31.57
2019-01-24T06:30:11.596Z,32.38
2019-01-24T06:32:40.070Z,35.60
2019-01-24T06:35:08.650Z,34.63
2019-01-24T06:37:37.566Z,30.95
2019-01-24T06:40:08.910Z,35.68
2019-01-24T06:42:37.418Z,35.23
2019-01-24T06:45:09.148Z,36.93
2019-01-24T06:47:37.621Z,34.25
2019-01-24T06:50:09.736Z,37.48
2019-01-24T06:52:38.161Z,34.50
2019-01-24T06:55:09.913Z,33.95
2019-01-24T06:57:38.378Z,34.80
2019-01-24T07:00:09.949Z,33.33
2019-01-24T07:02:38.417Z,35.68
2019-01-24T07:05:07.098Z,35.73
2019-01-24T07:07:35.532Z,36.53
2019-01-24T07:10:06.758Z,36.15
2019-01-24T07:12:35.465Z,37.20
2019-01-24T07:15:05.141Z,35.10
2019-01-24T07:17:52.921Z,36.77
2019-01-24T07:20:21.755Z,33.73
2019-01-24T07:22:50.174Z,34.92
2019-01-24T07:25:26.438Z,34.27
2019-01-24T07:27:54.882Z,34.45
2019-01-24T07:30:23.365Z,36.38
2019-01-24T07:32:51.806Z,35.73
2019-01-24T07:35:20.641Z,37.65
2019-01-24T07:37:49.087Z,36.08
2019-01-24T07:40:20.009Z,31.00
2019-01-24T07:42:49.209Z,35.43
2019-01-24T07:45:20.551Z,36.70
2019-01-24T07:47:48.976Z,32.88
2019-01-24T07:50:17.473Z,35.80
2019-01-24T07:52:45.911Z,33.67
2019-01-24T07:55:14.516Z,35.52
2019-01-24T07:57:43.503Z,32.78
2019-01-24T08:00:15.082Z,36.50
2019-01-24T08:02:43.562Z,36.08
2019-01-24T08:05:13.667Z,36.65
2019-01-24T08:07:42.396Z,34.98
2019-01-24T08:10:13.637Z,33.18
2019-01-24T08:12:42.141Z,37.10
2019-01-24T08:15:12.893Z,37.17
2019-01-24T08:17:42.126Z,34.53
2019-01-24T08:20:13.619Z,32.33
2019-01-24T08:22:42.080Z,34.20
2019-01-24T08:25:11.138Z,34.25
2019-01-24T08:27:39.933Z,32.17
2019-01-24T08:30:16.721Z,34.00
2019-01-24T08:32:45.296Z,33.92
2019-01-24T08:35:14.012Z,32.50
2019-01-24T08:37:42.508Z,28.05
2019-01-24T08:40:16.288Z,27.85
2019-01-24T08:42:44.747Z,30.62
2019-01-24T08:45:14.897Z,30.05
2019-01-24T08:47:43.406Z,28.15
2019-01-24T08:50:19.634Z,34.15
2019-01-24T08:52:48.601Z,30.00
2019-01-24T08:55:22.948Z,27.35
2019-01-24T08:57:51.385Z,30.20
2019-01-24T09:00:21.238Z,31.50
2019-01-24T09:02:50.933Z,29.27
2019-01-24T09:05:19.765Z,28.73
2019-01-24T09:07:48.170Z,24.23
2019-01-24T09:10:19.985Z,26.90
2019-01-24T09:12:48.385Z,24.20
2019-01-24T09:15:16.838Z,26.05
2019-01-24T09:17:45.241Z,25.17
2019-01-24T09:20:20.629Z,27.45
2019-01-24T09:22:54.972Z,28.30
2019-01-24T09:25:19.269Z,29.82
2019-01-24T09:27:47.704Z,29.77
2019-01-24T09:30:21.112Z,29.10
2019-01-24T09:32:49.561Z,27.05
2019-01-24T09:35:18.047Z,28.40
2019-01-24T09:37:46.524Z,27.05
2019-01-24T09:40:22.036Z,27.55
2019-01-24T09:42:50.528Z,27.02
2019-01-24T09:45:23.998Z,25.37
2019-01-24T09:47:54.042Z,30.92
2019-01-24T09:50:24.875Z,29.57
2019-01-24T09:52:53.321Z,32.15
2019-01-24T09:55:21.770Z,33.10
2019-01-24T09:57:50.405Z,30.05
2019-01-24T10:00:24.313Z,28.62
2019-01-24T10:02:53.005Z,28.60
2019-01-24T10:05:21.696Z,31.57
2019-01-24T10:07:50.106Z,32.15
2019-01-24T10:10:23.626Z,29.45
2019-01-24T10:12:54.367Z,31.42
2019-01-24T10:15:23.125Z,34.15
2019-01-24T10:17:51.546Z,31.42
2019-01-24T10:20:22.014Z,29.85
2019-01-24T10:22:50.493Z,29.82
2019-01-24T10:25:21.505Z,30.08
2019-01-24T10:27:50.016Z,28.38
2019-01-24T10:30:23.400Z,32.10
2019-01-24T10:32:52.582Z,27.48
2019-01-24T10:35:21.080Z,28.45
2019-01-24T10:37:49.489Z,27.50
2019-01-24T10:40:23.601Z,28.42
2019-01-24T10:42:52.056Z,31.65
2019-01-24T10:45:21.647Z,32.13
2019-01-24T10:47:51.781Z,33.45
2019-01-24T10:50:22.749Z,28.50
2019-01-24T10:52:51.225Z,30.00
2019-01-24T10:55:21.604Z,26.25
2019-01-24T10:57:50.989Z,27.05
2019-01-24T11:00:28.624Z,27.42
2019-01-24T11:02:57.024Z,24.75
2019-01-24T11:05:25.457Z,26.02
2019-01-24T11:07:53.933Z,26.55
2019-01-24T11:10:22.489Z,25.70
2019-01-24T11:12:51.157Z,25.00
2019-01-24T11:15:24.134Z,27.07
2019-01-24T11:17:52.570Z,27.00
2019-01-24T11:20:21.536Z,29.05
2019-01-24T11:22:50.474Z,27.60
2019-01-24T11:25:21.763Z,25.60
2019-01-24T11:27:50.200Z,27.65
2019-01-24T11:30:21.700Z,28.80
2019-01-24T11:32:50.274Z,28.40
2019-01-24T11:35:21.523Z,27.95
2019-01-24T11:37:50.072Z,30.65
2019-01-24T11:40:19.505Z,30.25
2019-01-24T11:42:48.155Z,29.85
2019-01-24T11:45:19.213Z,29.52
2019-01-24T11:47:47.933Z,35.38
2019-01-24T11:50:18.111Z,32.75
2019-01-24T11:52:46.680Z,32.53
2019-01-24T11:55:22.688Z,31.65
2019-01-24T11:57:51.118Z,30.55
2019-01-24T12:00:22.356Z,31.62
2019-01-24T12:02:50.770Z,30.17
2019-01-24T12:05:19.273Z,29.32
2019-01-24T12:07:47.767Z,29.63
2019-01-24T12:10:22.407Z,31.37
2019-01-24T12:12:50.828Z,28.92
2019-01-24T12:15:22.095Z,31.77
2019-01-24T12:17:50.513Z,28.47
2019-01-24T12:20:20.955Z,30.88
2019-01-24T12:22:49.449Z,29.90
2019-01-24T12:25:17.993Z,31.42
2019-01-24T12:27:46.510Z,26.55
2019-01-24T12:30:23.525Z,27.13
2019-01-24T12:32:52.168Z,29.77
2019-01-24T12:35:21.054Z,25.95
2019-01-24T12:37:49.463Z,26.55
2019-01-24T12:40:17.955Z,26.12
2019-01-24T12:42:46.539Z,25.90
2019-01-24T12:45:23.301Z,23.00
2019-01-24T12:47:51.898Z,23.18
2019-01-24T12:50:20.341Z,23.92
2019-01-24T12:52:48.741Z,27.40
2019-01-24T12:55:17.618Z,25.15
2019-01-24T12:57:46.129Z,28.47
2019-01-24T13:00:25.277Z,26.85
2019-01-24T13:02:53.705Z,26.68
2019-01-24T13:05:22.389Z,30.77
2019-01-24T13:07:50.841Z,37.38
2019-01-24T13:10:25.066Z,33.08
2019-01-24T13:12:53.542Z,30.37
2019-01-24T13:15:24.424Z,29.18
2019-01-24T13:17:52.865Z,30.35
2019-01-24T13:20:21.320Z,28.62
2019-01-24T13:22:49.718Z,30.70
2019-01-24T13:25:23.026Z,30.23
2019-01-24T13:27:51.488Z,30.30
2019-01-24T13:30:22.197Z,31.77
2019-01-24T13:32:50.613Z,33.60
2019-01-24T13:35:19.192Z,32.15
2019-01-24T13:37:47.746Z,31.37
2019-01-24T13:40:18.881Z,32.98
2019-01-24T13:42:47.387Z,32.67
2019-01-24T13:45:21.508Z,33.40
2019-01-24T13:47:50.224Z,29.25
2019-01-24T13:50:19.121Z,31.35
2019-01-24T13:52:48.083Z,36.30
2019-01-24T13:55:16.584Z,35.65
2019-01-24T13:57:45.102Z,33.65
2019-01-24T14:00:17.381Z,30.95
2019-01-24T14:02:47.054Z,27.32
2019-01-24T14:05:18.155Z,29.10
2019-01-24T14:07:46.609Z,28.85
2019-01-24T14:10:17.344Z,27.15
2019-01-24T14:12:45.752Z,28.98
2019-01-24T14:15:18.954Z,26.57
2019-01-24T14:17:47.360Z,27.37
2019-01-24T14:20:20.904Z,27.65
2019-01-24T14:22:49.661Z,31.23
2019-01-24T14:25:21.732Z,29.45
2019-01-24T14:27:50.158Z,30.75
2019-01-24T14:30:23.651Z,29.95
2019-01-24T14:32:52.203Z,32.08
2019-01-24T14:35:24.131Z,28.80
2019-01-24T14:37:53.011Z,28.40
2019-01-24T14:40:21.716Z,26.45
2019-01-24T14:42:50.469Z,29.25
2019-01-24T14:45:24.272Z,29.77
2019-01-24T14:47:52.954Z,30.70
2019-01-24T14:50:23.613Z,32.83
2019-01-24T14:52:52.170Z,30.55
2019-01-24T14:55:20.670Z,34.45
2019-01-24T14:57:49.497Z,30.92
2019-01-24T15:00:29.424Z,29.02
2019-01-24T15:02:58.021Z,39.25
2019-01-24T15:05:26.541Z,28.32
2019-01-24T15:07:55.115Z,31.62
2019-01-24T15:10:23.989Z,26.95
2019-01-24T15:12:52.718Z,24.92
2019-01-24T15:15:22.766Z,24.92
2019-01-24T15:17:52.374Z,25.68
2019-01-24T15:20:21.504Z,25.90
2019-01-24T15:22:50.576Z,25.82
2019-01-24T15:25:20.798Z,30.17
2019-01-24T15:27:49.361Z,27.42
2019-01-24T15:30:25.741Z,29.02
2019-01-24T15:32:54.277Z,29.67
2019-01-24T15:35:22.926Z,32.35
2019-01-24T15:37:54.682Z,35.75
2019-01-24T15:40:24.658Z,33.88
2019-01-24T15:42:53.331Z,34.45
2019-01-24T15:45:21.944Z,34.53
2019-01-24T15:47:50.525Z,35.05
2019-01-24T15:50:21.179Z,34.33
2019-01-24T15:52:49.763Z,34.25
2019-01-24T15:55:18.673Z,31.02
2019-01-24T15:57:49.490Z,33.15
2019-01-24T16:00:20.661Z,32.50
2019-01-24T16:02:49.517Z,33.00
2019-01-24T16:05:18.081Z,30.82
2019-01-24T16:07:46.846Z,32.88
2019-01-24T16:10:18.328Z,30.72
2019-01-24T16:12:47.139Z,31.48
2019-01-24T16:15:26.956Z,32.95
2019-01-24T16:17:55.684Z,28.50
2019-01-24T16:20:26.753Z,33.33
2019-01-24T16:22:55.673Z,34.10
2019-01-24T16:25:27.238Z,33.85
2019-01-24T16:27:56.294Z,33.65
2019-01-24T16:30:27.435Z,32.38
2019-01-24T16:32:56.819Z,34.18
2019-01-24T16:35:25.665Z,33.70
2019-01-24T16:37:54.833Z,31.10
2019-01-24T16:40:25.662Z,31.25
2019-01-24T16:42:54.449Z,29.92
2019-01-24T16:45:25.493Z,35.35
2019-01-24T16:47:54.701Z,30.72
2019-01-24T16:50:25.148Z,33.33
2019-01-24T16:52:53.999Z,30.80
2019-01-24T16:55:23.113Z,31.75
2019-01-24T16:57:52.570Z,30.05
2019-01-24T17:00:30.231Z,29.42
2019-01-24T17:03:00.745Z,29.72
2019-01-24T17:05:30.774Z,30.77
2019-01-24T17:07:59.836Z,28.42
2019-01-24T17:10:29.685Z,28.35
2019-01-24T17:12:58.608Z,28.47
2019-01-24T17:15:27.215Z,31.82
2019-01-24T17:17:56.433Z,30.57
2019-01-24T17:20:32.204Z,32.23
2019-01-24T17:23:01.559Z,26.68
2019-01-24T17:25:33.782Z,29.15
2019-01-24T17:28:05.973Z,30.17
2019-01-24T17:30:35.202Z,30.62
2019-01-24T17:33:05.472Z,32.50
2019-01-24T17:35:35.586Z,29.77
2019-01-24T17:38:04.977Z,30.15
2019-01-24T17:40:37.438Z,30.48
2019-01-24T17:43:07.061Z,30.05
2019-01-24T17:45:36.310Z,31.33
2019-01-24T17:48:06.717Z,27.73
2019-01-24T17:50:36.044Z,30.48
2019-01-24T17:53:05.269Z,29.85
2019-01-24T17:55:36.949Z,27.95
2019-01-24T17:58:07.469Z,25.37
2019-01-24T18:00:37.829Z,30.55
2019-01-24T18:03:06.798Z,29.12
2019-01-24T18:05:35.793Z,27.90
2019-01-24T18:08:04.965Z,24.85
2019-01-24T18:10:34.279Z,26.65
2019-01-24T18:13:03.579Z,27.75
2019-01-24T18:15:37.750Z,28.10
2019-01-24T18:18:10.063Z,30.40
2019-01-24T18:20:39.600Z,33.70
2019-01-24T18:23:10.588Z,27.35
2019-01-24T18:25:39.854Z,28.52
2019-01-24T18:28:11.190Z,31.30
2019-01-24T18:30:41.076Z,29.55
2019-01-24T18:33:10.434Z,29.07
2019-01-24T18:35:39.924Z,31.37
2019-01-24T18:38:09.472Z,27.67
2019-01-24T18:40:39.446Z,30.65
2019-01-24T18:43:12.222Z,27.30
2019-01-24T18:45:47.866Z,30.25
2019-01-24T18:48:17.490Z,30.60
2019-01-24T18:50:46.573Z,30.27
2019-01-24T18:53:15.865Z,29.55
2019-01-24T18:55:45.142Z,30.52
2019-01-24T18:58:14.565Z,28.83
2019-01-24T19:00:44.894Z,31.90
2019-01-24T19:03:14.108Z,33.23
2019-01-24T19:05:43.825Z,32.88
2019-01-24T19:08:13.393Z,32.75
2019-01-24T19:10:42.839Z,33.18
2019-01-24T19:13:12.099Z,34.05
2019-01-24T19:15:41.846Z,31.65
2019-01-24T19:18:12.007Z,29.60
2019-01-24T19:20:41.423Z,30.10
2019-01-24T19:23:11.496Z,30.37
2019-01-24T19:25:41.334Z,33.38
2019-01-24T19:28:13.029Z,30.72
2019-01-24T19:30:42.428Z,32.05
2019-01-24T19:33:12.378Z,31.27
2019-01-24T19:35:41.876Z,32.00
2019-01-24T19:38:11.437Z,30.05
2019-01-24T19:40:41.065Z,32.15
2019-01-24T19:43:10.337Z,34.83
2019-01-24T19:45:39.596Z,32.67
2019-01-24T19:48:09.034Z,32.75
2019-01-24T19:50:38.570Z,29.70
2019-01-24T19:53:08.279Z,33.35
2019-01-24T19:55:37.842Z,33.53
2019-01-24T19:58:07.702Z,33.53
2019-01-24T20:00:37.298Z,33.40
2019-01-24T20:03:06.870Z,33.38
2019-01-24T20:05:35.936Z,29.37
2019-01-24T20:08:05.975Z,33.33
2019-01-24T20:10:35.194Z,33.48
2019-01-24T20:13:04.775Z,32.58
2019-01-24T20:15:34.057Z,32.30
2019-01-24T20:18:03.334Z,33.85
2019-01-24T20:20:32.617Z,30.62
2019-01-24T20:23:01.958Z,31.33
2019-01-24T20:25:33.672Z,31.93
2019-01-24T20:28:03.473Z,34.92
2019-01-24T20:30:34.919Z,28.77
2019-01-24T20:33:04.776Z,29.98
2019-01-24T20:35:39.907Z,33.02
2019-01-24T20:38:11.255Z,32.08
2019-01-24T20:40:41.182Z,33.30
2019-01-24T20:43:12.168Z,31.87
2019-01-24T20:45:41.673Z,30.27
2019-01-24T20:48:11.594Z,28.75
2019-01-24T20:50:41.102Z,29.90
2019-01-24T20:53:10.108Z,30.72
2019-01-24T20:55:39.074Z,32.03
2019-01-24T20:58:11.506Z,29.92
2019-01-24T21:00:41.090Z,31.80
2019-01-24T21:03:10.671Z,31.33
2019-01-24T21:05:39.862Z,29.55
2019-01-24T21:08:08.992Z,28.57
2019-01-24T21:10:38.189Z,29.77
2019-01-24T21:13:08.177Z,29.82
2019-01-24T21:15:37.711Z,30.72
2019-01-24T21:18:06.997Z,30.43
2019-01-24T21:20:36.141Z,30.08
2019-01-24T21:23:05.577Z,27.67
2019-01-24T21:25:34.423Z,30.45
2019-01-24T21:28:03.109Z,29.05
2019-01-24T21:30:34.411Z,30.08
2019-01-24T21:33:03.544Z,31.20
2019-01-24T21:35:32.202Z,30.92
2019-01-24T21:38:02.322Z,30.02
2019-01-24T21:40:30.958Z,30.70
2019-01-24T21:42:59.800Z,29.72
2019-01-24T21:45:30.940Z,31.20
2019-01-24T21:47:59.433Z,30.95
2019-01-24T21:50:32.707Z,33.83
2019-01-24T21:53:01.301Z,30.60
2019-01-24T21:55:29.962Z,32.08
2019-01-24T21:57:58.372Z,29.00
2019-01-24T22:00:28.956Z,31.37
2019-01-24T22:02:57.664Z,31.97
2019-01-24T22:05:26.312Z,31.33
2019-01-24T22:07:55.084Z,29.52
2019-01-24T22:10:25.765Z,31.62
2019-01-24T22:12:54.269Z,33.08
2019-01-24T22:15:25.706Z,32.00
2019-01-24T22:17:55.447Z,31.90
2019-01-24T22:20:23.854Z,34.18
2019-01-24T22:22:52.285Z,32.63
2019-01-24T22:25:26.190Z,30.15
2019-01-24T22:27:54.716Z,31.93
2019-01-24T22:30:33.564Z,34.98
2019-01-24T22:33:02.007Z,33.88
2019-01-24T22:35:30.472Z,29.75
2019-01-24T22:37:58.991Z,33.05
2019-01-24T22:40:27.412Z,34.95
2019-01-24T22:42:55.829Z,34.40
2019-01-24T22:45:25.628Z,32.03
2019-01-24T22:47:54.267Z,32.25
2019-01-24T22:50:22.778Z,32.60
2019-01-24T22:52:51.377Z,37.15
2019-01-24T22:55:21.046Z,34.88
2019-01-24T22:57:50.107Z,33.83
2019-01-24T23:00:48.463Z,33.90
2019-01-24T23:03:35.472Z,29.82
2019-01-24T23:06:04.760Z,30.95
2019-01-24T23:08:33.266Z,34.00
2019-01-24T23:11:02.309Z,33.65
2019-01-24T23:13:30.825Z,34.40
2019-01-24T23:15:59.253Z,33.48
2019-01-24T23:18:27.731Z,33.55
2019-01-24T23:20:56.205Z,34.85
2019-01-24T23:23:24.714Z,33.85
2019-01-24T23:25:53.146Z,32.53
2019-01-24T23:28:21.569Z,35.40
2019-01-24T23:30:50.129Z,36.28
2019-01-24T23:33:18.664Z,31.75
2019-01-24T23:35:47.096Z,35.43
2019-01-24T23:38:15.573Z,33.85
2019-01-24T23:40:44.160Z,38.40
2019-01-24T23:43:13.063Z,33.67
2019-01-24T23:45:41.500Z,35.73
2019-01-24T23:48:10.009Z,33.98
2019-01-24T23:50:38.487Z,35.55
2019-01-24T23:53:06.976Z,37.05
2019-01-24T23:55:35.450Z,36.17
2019-01-24T23:58:04.140Z,36.88
